Time;durP1;ratioP1;P1;durP2;ratioP2;P2;SDS_P1;SDS_P2;PMS_P1;PMS_P2;Temp;Humidity;BMP_temperature;BMP_pressure;BME280_temperature;BME280_humidity;BME280_pressure;Samples;Min_cycle;Max_cycle;Signal;HPM_P1;HPM_P2
2022/01/11 00:01:01;;;;;;;3.03;0.90;;;;;;;-4.40;72.99;100290.57;1754600;79;21473;-50
2022/01/11 00:03:27;;;;;;;2.57;0.83;;;;;;;-4.39;73.07;100293.66;1756071;79;21035;-50
2022/01/11 00:06:13;;;;;;;2.17;0.80;;;;;;;-4.40;73.24;100295.40;1755277;80;21364;-49
2022/01/11 00:08:32;;;;;;;2.20;0.87;;;;;;;-4.39;73.31;100297.17;1752073;79;21052;-49
2022/01/11 00:11:05;;;;;;;3.72;1.00;;;;;;;-4.35;73.51;100305.59;1752084;79;21369;-49
2022/01/11 00:13:36;;;;;;;2.60;0.90;;;;;;;-4.33;73.49;100304.28;1753205;81;21107;-49
2022/01/11 00:16:03;;;;;;;2.70;0.90;;;;;;;-4.34;73.39;100305.17;1754275;79;21724;-50
2022/01/11 00:18:31;;;;;;;5.30;1.20;;;;;;;-4.35;73.48;100314.80;1755703;81;20874;-49
2022/01/11 00:20:57;;;;;;;3.67;1.17;;;;;;;-4.38;74.01;100312.09;1759295;79;20902;-49
2022/01/11 00:25:50;;;;;;;3.40;1.00;;;;;;;-4.34;73.71;100311.28;1759362;79;21495;-49
2022/01/11 00:28:18;;;;;;;2.33;1.00;;;;;;;-4.35;73.63;100313.48;1757223;79;21097;-49
2022/01/11 00:30:52;;;;;;;0.97;0.60;;;;;;;-4.37;73.32;100319.13;1738036;79;21004;-49
2022/01/11 00:33:26;;;;;;;1.00;0.70;;;;;;;-4.40;73.06;100319.05;1757446;79;20910;-49
2022/01/11 00:35:59;;;;;;;3.10;0.90;;;;;;;-4.42;73.71;100318.13;1757890;79;20925;-50
2022/01/11 00:38:29;;;;;;;1.73;0.83;;;;;;;-4.42;73.78;100321.21;1759038;79;20918;-49
2022/01/11 00:40:58;;;;;;;1.73;0.80;;;;;;;-4.41;73.18;100315.08;1759587;79;21083;-50
2022/01/11 00:43:25;;;;;;;1.70;0.60;;;;;;;-4.42;72.38;100323.38;1754440;81;21525;-50
2022/01/11 00:45:54;;;;;;;1.50;0.70;;;;;;;-4.44;72.24;100323.80;1758507;81;20909;-49
2022/01/11 00:48:20;;;;;;;1.43;0.70;;;;;;;-4.44;72.21;100327.74;1757723;81;20960;-49
2022/01/11 00:50:48;;;;;;;2.10;0.60;;;;;;;-4.40;72.20;100327.36;1759112;79;21966;-49
2022/01/11 00:53:14;;;;;;;2.23;0.77;;;;;;;-4.39;71.80;100319.94;1759859;79;21363;-51
2022/01/11 00:55:40;;;;;;;1.37;0.60;;;;;;;-4.38;71.69;100328.28;1760739;79;21020;-50
2022/01/11 00:58:07;;;;;;;1.80;0.77;;;;;;;-4.39;71.99;100320.83;1761614;79;20913;-51
2022/01/11 01:00:35;;;;;;;2.90;0.80;;;;;;;-4.36;71.92;100322.64;1759541;79;20937;-50
2022/01/11 01:03:02;;;;;;;2.20;0.90;;;;;;;-4.35;71.79;100327.94;1757514;79;21040;-51
2022/01/11 01:05:29;;;;;;;2.37;0.70;;;;;;;-4.35;71.66;100333.62;1758529;79;21107;-51
2022/01/11 01:07:56;;;;;;;1.17;0.60;;;;;;;-4.36;71.73;100337.09;1756584;81;21040;-52
2022/01/11 01:10:35;;;;;;;2.97;1.03;;;;;;;-4.37;71.72;100339.27;1759791;79;21012;-51
2022/01/11 01:12:54;;;;;;;4.23;1.23;;;;;;;-4.39;71.81;100340.53;1750732;79;21518;-51
2022/01/11 01:15:22;;;;;;;3.20;1.03;;;;;;;-4.34;71.98;100344.59;1757967;79;20889;-51
2022/01/11 01:17:49;;;;;;;3.00;1.20;;;;;;;-4.36;71.72;100348.50;1760013;81;21086;-51
2022/01/11 01:20:15;;;;;;;5.03;1.70;;;;;;;-4.38;71.91;100360.71;1754771;81;21178;-51
2022/01/11 01:22:42;;;;;;;1.43;0.70;;;;;;;-4.40;71.47;100352.33;1758185;81;21036;-51
2022/01/11 01:25:09;;;;;;;1.53;0.70;;;;;;;-4.48;70.85;100348.66;1755007;81;21378;-51
2022/01/11 01:27:36;;;;;;;2.20;0.70;;;;;;;-4.55;71.11;100363.41;1756645;79;21036;-51
2022/01/11 01:30:04;;;;;;;1.87;0.97;;;;;;;-4.55;70.92;100353.32;1727412;81;21457;-51
2022/01/11 01:32:31;;;;;;;2.73;0.70;;;;;;;-4.60;70.43;100355.44;1763821;79;21459;-52
2022/01/11 01:35:02;;;;;;;2.50;0.80;;;;;;;-4.62;70.35;100350.56;1762772;79;21479;-51
2022/01/11 01:37:25;;;;;;;1.30;0.63;;;;;;;-4.64;70.83;100362.77;1760495;81;20953;-51
2022/01/11 01:39:51;;;;;;;2.17;0.80;;;;;;;-4.67;70.97;100361.38;1757387;81;21589;-51
2022/01/11 01:42:25;;;;;;;1.63;0.70;;;;;;;-4.68;70.71;100360.06;1758912;79;21058;-50
2022/01/11 01:44:51;;;;;;;2.53;1.33;;;;;;;-4.68;70.65;100362.69;1760674;81;20972;-51
2022/01/11 01:47:18;;;;;;;2.10;0.87;;;;;;;-4.67;70.44;100361.80;1759033;81;22088;-51
2022/01/11 01:49:45;;;;;;;1.53;0.67;;;;;;;-4.66;70.60;100364.47;1757710;81;21620;-51
2022/01/11 01:52:12;;;;;;;4.60;1.10;;;;;;;-4.64;70.40;100365.83;1758666;79;21570;-51
2022/01/11 01:54:38;;;;;;;3.60;1.20;;;;;;;-4.66;70.46;100364.90;1757124;81;21144;-51
2022/01/11 01:57:05;;;;;;;5.13;1.33;;;;;;;-4.67;70.60;100365.32;1757314;81;21037;-51
2022/01/11 01:59:32;;;;;;;3.20;1.10;;;;;;;-4.68;70.40;100364.86;1759405;79;21101;-51
2022/01/11 02:01:59;;;;;;;2.43;1.10;;;;;;;-4.67;70.70;100366.64;1759232;81;21063;-51
2022/01/11 02:04:25;;;;;;;3.17;0.90;;;;;;;-4.65;70.84;100364.05;1758188;79;21124;-50
2022/01/11 02:06:52;;;;;;;2.93;0.90;;;;;;;-4.61;70.82;100373.36;1757043;81;22210;-49
2022/01/11 02:09:19;;;;;;;2.10;0.87;;;;;;;-4.58;70.84;100369.89;1759665;81;21036;-50
2022/01/11 02:11:47;;;;;;;3.17;1.00;;;;;;;-4.56;70.95;100368.19;1758698;81;22397;-50
2022/01/11 02:14:14;;;;;;;3.17;1.33;;;;;;;-4.50;71.07;100376.63;1736368;81;21079;-49
2022/01/11 02:16:41;;;;;;;2.13;0.80;;;;;;;-4.51;71.09;100374.88;1756139;81;21091;-50
2022/01/11 02:19:08;;;;;;;2.30;0.80;;;;;;;-4.51;71.32;100384.08;1759695;81;21151;-49
2022/01/11 02:21:34;;;;;;;2.23;1.00;;;;;;;-4.54;71.45;100381.38;1759033;81;20917;-49
2022/01/11 02:24:01;;;;;;;2.93;1.00;;;;;;;-4.59;71.60;100386.50;1759569;81;21048;-50
2022/01/11 02:26:29;;;;;;;3.53;1.10;;;;;;;-4.62;71.70;100381.20;1757902;81;21055;-49
2022/01/11 02:28:55;;;;;;;2.97;0.90;;;;;;;-4.61;71.74;100382.56;1757552;81;21068;-48
2022/01/11 02:31:22;;;;;;;2.37;0.90;;;;;;;-4.60;71.76;100385.65;1756614;81;23355;-50
2022/01/11 02:33:57;;;;;;;1.80;1.10;;;;;;;-4.58;71.71;100384.34;1758111;81;21059;-51
2022/01/11 02:36:32;;;;;;;1.30;0.77;;;;;;;-4.62;71.38;100383.41;1755182;79;21158;-51
2022/01/11 02:39:00;;;;;;;2.97;1.40;;;;;;;-4.66;71.80;100378.03;1755595;81;21024;-50
2022/01/11 02:41:28;;;;;;;2.27;1.03;;;;;;;-4.68;71.87;100387.64;1758129;81;21125;-49
2022/01/11 02:43:55;;;;;;;1.97;0.90;;;;;;;-4.69;71.89;100390.69;1761523;81;21521;-49
2022/01/11 02:46:22;;;;;;;2.47;0.80;;;;;;;-4.69;71.97;100391.12;1756930;81;21501;-49
2022/01/11 02:48:53;;;;;;;1.80;0.80;;;;;;;-4.71;71.93;100386.25;1760675;81;21995;-50
2022/01/11 02:51:19;;;;;;;2.77;0.90;;;;;;;-4.72;72.04;100381.42;1759567;81;21083;-51
2022/01/11 02:53:49;;;;;;;3.80;1.30;;;;;;;-4.71;72.25;100392.39;1755970;79;21040;-50
2022/01/11 02:56:17;;;;;;;2.80;1.30;;;;;;;-4.70;72.40;100391.55;1761510;81;21659;-50
2022/01/11 02:58:44;;;;;;;3.20;1.20;;;;;;;-4.68;72.63;100400.77;1761140;81;20960;-50
2022/01/11 03:01:11;;;;;;;3.77;0.90;;;;;;;-4.67;72.83;100390.28;1756557;81;21044;-51
2022/01/11 03:03:38;;;;;;;2.47;1.00;;;;;;;-4.63;73.01;100395.19;1760874;79;21111;-50
2022/01/11 03:06:05;;;;;;;2.80;1.00;;;;;;;-4.61;73.03;100393.06;1756649;81;21122;-50
2022/01/11 03:08:36;;;;;;;1.83;1.00;;;;;;;-4.60;73.15;100394.84;1756879;81;22482;-48
2022/01/11 03:11:03;;;;;;;1.50;0.80;;;;;;;-4.60;73.35;100396.58;1760540;81;21046;-49
2022/01/11 03:13:31;;;;;;;1.87;0.80;;;;;;;-4.60;73.25;100393.95;1761190;79;20909;-48
2022/01/11 03:15:58;;;;;;;2.80;1.00;;;;;;;-4.61;73.56;100400.06;1761804;81;20897;-48
2022/01/11 03:18:24;;;;;;;1.73;0.87;;;;;;;-4.62;73.88;100393.91;1758050;81;20885;-49
2022/01/11 03:20:51;;;;;;;2.50;0.83;;;;;;;-4.63;74.09;100410.52;1758455;79;21978;-50
2022/01/11 03:23:18;;;;;;;3.13;0.90;;;;;;;-4.64;74.17;100404.81;1746807;80;20927;-47
2022/01/11 03:25:45;;;;;;;2.13;0.67;;;;;;;-4.64;74.12;100400.86;1749721;80;20913;-49
2022/01/11 03:28:15;;;;;;;5.47;0.90;;;;;;;-4.63;74.19;100407.90;1777034;79;20970;-51
2022/01/11 03:30:41;;;;;;;2.43;0.70;;;;;;;-4.62;74.44;100404.84;1775353;78;21019;-50
2022/01/11 03:33:08;;;;;;;2.37;0.90;;;;;;;-4.58;74.60;100404.94;1747553;80;21126;-49
2022/01/11 03:35:36;;;;;;;1.97;0.93;;;;;;;-4.53;74.48;100415.98;1749333;80;20879;-48
2022/01/11 03:38:04;;;;;;;1.83;0.70;;;;;;;-4.53;74.60;100409.42;1771750;80;21064;-50
2022/01/11 03:40:31;;;;;;;2.00;0.80;;;;;;;-4.55;74.84;100410.70;1733215;81;21931;-49
2022/01/11 03:42:57;;;;;;;2.30;0.80;;;;;;;-4.55;74.91;100412.44;1759680;79;21411;-50
2022/01/11 03:45:24;;;;;;;2.77;1.13;;;;;;;-4.56;74.89;100414.17;1758946;81;21778;-48
2022/01/11 03:47:55;;;;;;;3.10;1.80;;;;;;;-4.55;74.96;100423.83;1754739;80;21071;-47
2022/01/11 03:50:21;;;;;;;4.23;1.47;;;;;;;-4.51;75.00;100425.69;1738402;81;21084;-48
2022/01/11 03:52:55;;;;;;;4.80;1.70;;;;;;;-4.53;74.97;100426.50;1756997;81;21080;-48
2022/01/11 03:55:31;;;;;;;5.83;1.20;;;;;;;-4.54;75.06;100425.61;1759772;81;20901;-49
2022/01/11 03:57:48;;;;;;;2.67;0.90;;;;;;;-4.55;75.02;100421.62;1757535;80;21064;-51
2022/01/11 04:00:17;;;;;;;2.63;0.80;;;;;;;-4.54;75.27;100429.55;1762018;79;21415;-49
2022/01/11 04:02:44;;;;;;;4.00;1.10;;;;;;;-4.52;75.24;100424.34;1762916;79;20949;-51
2022/01/11 04:05:13;;;;;;;2.07;1.07;;;;;;;-4.49;75.32;100427.02;1762780;79;21342;-50
2022/01/11 04:07:41;;;;;;;2.30;0.90;;;;;;;-4.49;75.35;100428.33;1781342;78;20909;-48
2022/01/11 04:10:09;;;;;;;2.80;0.90;;;;;;;-4.52;75.43;100436.16;1741053;80;21755;-48
2022/01/11 04:12:36;;;;;;;5.20;1.00;;;;;;;-4.49;75.62;100437.09;1781167;80;20995;-48
2022/01/11 04:15:03;;;;;;;2.83;1.10;;;;;;;-4.44;75.57;100439.84;1778429;80;21131;-49
2022/01/11 04:17:30;;;;;;;2.00;1.00;;;;;;;-4.43;75.60;100441.63;1777757;78;21040;-49
2022/01/11 04:19:58;;;;;;;6.67;1.10;;;;;;;-4.39;75.58;100442.14;1778273;80;21048;-48
2022/01/11 04:22:24;;;;;;;1.93;0.83;;;;;;;-4.38;75.58;100438.23;1744017;81;21107;-48
2022/01/11 04:24:51;;;;;;;1.63;0.80;;;;;;;-4.34;75.62;100440.06;1741995;80;21131;-50
2022/01/11 04:27:19;;;;;;;3.83;1.07;;;;;;;-4.29;75.48;100449.38;1740776;80;21052;-49
2022/01/11 04:29:45;;;;;;;2.63;1.03;;;;;;;-4.31;75.31;100458.97;1739666;81;22681;-50
2022/01/11 04:32:11;;;;;;;4.07;0.90;;;;;;;-4.35;75.41;100455.41;1743517;80;21068;-49
2022/01/11 04:34:38;;;;;;;4.10;1.93;;;;;;;-4.37;75.39;100458.84;1742821;80;21175;-50
2022/01/11 04:37:04;;;;;;;5.30;2.77;;;;;;;-4.40;75.59;100454.39;1742595;81;21597;-50
2022/01/11 04:39:33;;;;;;;7.47;3.43;;;;;;;-4.41;75.76;100447.78;1769433;78;22347;-51
2022/01/11 04:42:00;;;;;;;3.37;1.20;;;;;;;-4.37;75.86;100460.16;1772951;78;21052;-49
2022/01/11 04:44:27;;;;;;;2.47;1.00;;;;;;;-4.32;75.87;100465.08;1772381;78;21077;-48
2022/01/11 04:46:54;;;;;;;7.60;1.13;;;;;;;-4.27;75.73;100465.66;1770818;78;21613;-49
2022/01/11 04:49:20;;;;;;;3.43;0.97;;;;;;;-4.27;75.72;100470.02;1772133;78;21008;-48
2022/01/11 04:51:46;;;;;;;2.73;1.03;;;;;;;-4.31;75.95;100469.48;1770340;78;21068;-49
2022/01/11 04:54:13;;;;;;;4.17;1.10;;;;;;;-4.31;76.12;100474.73;1771577;78;21092;-49
2022/01/11 04:56:39;;;;;;;2.83;1.20;;;;;;;-4.33;76.14;100469.86;1775677;78;21586;-52
2022/01/11 04:59:06;;;;;;;4.07;1.10;;;;;;;-4.30;76.28;100474.78;1772160;78;22908;-46
2022/01/11 05:01:33;;;;;;;2.47;1.00;;;;;;;-4.27;76.27;100476.17;1771163;80;21708;-48
2022/01/11 05:03:59;;;;;;;3.17;1.20;;;;;;;-4.27;76.17;100478.80;1771640;78;21045;-50
2022/01/11 05:06:26;;;;;;;2.60;0.93;;;;;;;-4.27;76.38;100472.23;1771164;78;21080;-47
2022/01/11 05:08:53;;;;;;;1.70;0.80;;;;;;;-4.23;76.37;100476.69;1769289;78;21052;-47
2022/01/11 05:11:22;;;;;;;1.87;0.93;;;;;;;-4.22;76.41;100481.09;1771190;78;21098;-48
2022/01/11 05:13:48;;;;;;;2.13;0.83;;;;;;;-4.20;76.58;100482.02;1775514;80;21518;-46
2022/01/11 05:16:16;;;;;;;1.70;0.80;;;;;;;-4.18;76.45;100483.38;1776460;78;21156;-48
2022/01/11 05:18:43;;;;;;;1.40;0.77;;;;;;;-4.18;76.56;100490.38;1770145;80;21041;-47
2022/01/11 05:21:09;;;;;;;2.07;0.90;;;;;;;-4.17;76.50;100496.98;1769835;80;21466;-52
2022/01/11 05:23:36;;;;;;;2.90;0.80;;;;;;;-4.20;76.57;100496.48;1769564;80;21140;-51
2022/01/11 05:26:04;;;;;;;2.67;0.90;;;;;;;-4.22;76.70;100498.61;1770643;80;21030;-50
2022/01/11 05:28:31;;;;;;;1.40;1.00;;;;;;;-4.24;76.66;100509.08;1771794;80;21036;-49
2022/01/11 05:31:42;;;;;;;1.30;0.70;;;;;;;-4.26;76.72;100513.86;1849550;75;27070;-48
2022/01/11 05:34:09;;;;;;;1.10;0.70;;;;;;;-4.30;76.75;100512.00;1845131;75;20935;-48
2022/01/11 05:36:35;;;;;;;1.50;0.70;;;;;;;-4.28;76.53;100508.98;1848116;75;21062;-48
2022/01/11 05:39:02;;;;;;;1.47;0.97;;;;;;;-4.27;76.54;100518.66;1845958;77;21013;-51
2022/01/11 05:41:31;;;;;;;4.10;0.60;;;;;;;-4.28;76.24;100515.56;1842158;75;21006;-48
2022/01/11 05:43:58;;;;;;;1.30;0.60;;;;;;;-4.30;76.14;100519.46;1846536;77;20954;-49
2022/01/11 05:46:24;;;;;;;1.43;0.77;;;;;;;-4.27;76.21;100527.43;1844106;76;21306;-50
2022/01/11 05:48:50;;;;;;;1.00;0.60;;;;;;;-4.26;76.51;100529.21;1848567;75;21503;-51
2022/01/11 05:51:17;;;;;;;1.73;0.60;;;;;;;-4.23;76.29;100530.58;1845416;76;21424;-49
2022/01/11 05:53:43;;;;;;;0.90;0.60;;;;;;;-4.20;76.27;100538.97;1850780;77;21311;-51
2022/01/11 05:56:10;;;;;;;1.50;0.90;;;;;;;-4.18;76.20;100533.33;1848295;77;20900;-52
2022/01/11 05:58:37;;;;;;;1.20;0.70;;;;;;;-4.14;76.07;100544.78;1833458;77;21043;-50
2022/01/11 06:01:03;;;;;;;1.80;1.00;;;;;;;-4.12;76.06;100538.72;1834000;77;22182;-49
2022/01/11 06:03:30;;;;;;;1.87;0.70;;;;;;;-4.06;76.13;100541.91;1837813;77;21485;-49
2022/01/11 06:05:56;;;;;;;1.83;0.63;;;;;;;-4.02;75.82;100547.28;1837966;77;21534;-50
2022/01/11 06:08:22;;;;;;;3.10;1.03;;;;;;;-3.98;75.90;100549.53;1836878;76;21009;-50
2022/01/11 06:10:49;;;;;;;7.00;2.10;;;;;;;-3.96;75.92;100552.67;1835751;77;21017;-49
2022/01/11 06:13:17;;;;;;;2.90;1.10;;;;;;;-3.92;75.92;100558.48;1839265;77;21090;-50
2022/01/11 06:15:44;;;;;;;1.80;0.80;;;;;;;-3.91;76.09;100551.02;1837279;77;20994;-49
2022/01/11 06:18:13;;;;;;;1.97;0.80;;;;;;;-3.91;76.15;100554.97;1833554;77;21076;-50
2022/01/11 06:20:41;;;;;;;2.60;1.37;;;;;;;-3.91;76.15;100554.97;1836237;77;21704;-50
2022/01/11 06:23:08;;;;;;;1.13;0.63;;;;;;;-3.91;76.21;100558.91;1834517;77;21131;-51
2022/01/11 06:25:35;;;;;;;1.67;0.80;;;;;;;-3.94;76.36;100565.86;1812217;77;21192;-50
2022/01/11 06:28:01;;;;;;;2.27;0.90;;;;;;;-3.96;76.53;100565.83;1840877;77;20849;-49
2022/01/11 06:30:28;;;;;;;2.73;1.13;;;;;;;-3.97;76.75;100573.67;1841262;77;20831;-50
2022/01/11 06:32:55;;;;;;;3.23;1.33;;;;;;;-3.94;76.91;100569.38;1839499;77;20874;-49
2022/01/11 06:35:22;;;;;;;3.00;1.03;;;;;;;-3.90;77.02;100571.64;1837379;77;20921;-49
2022/01/11 06:37:51;;;;;;;3.80;1.27;;;;;;;-3.86;77.01;100573.50;1840905;77;22199;-52
2022/01/11 06:40:19;;;;;;;2.83;1.10;;;;;;;-3.85;76.92;100569.59;1842230;77;21373;-50
2022/01/11 06:42:46;;;;;;;4.80;1.53;;;;;;;-3.85;76.99;100570.91;1815608;77;20894;-50
2022/01/11 06:45:14;;;;;;;4.03;0.93;;;;;;;-3.82;76.96;100581.48;1841074;77;20957;-49
2022/01/11 06:47:40;;;;;;;5.83;1.03;;;;;;;-3.79;77.02;100587.24;1841234;77;20914;-49
2022/01/11 06:50:08;;;;;;;2.43;0.90;;;;;;;-3.77;77.01;100585.55;1842801;77;21043;-48
2022/01/11 06:52:35;;;;;;;3.10;1.23;;;;;;;-3.76;76.93;100584.70;1842338;77;20914;-49
2022/01/11 06:55:06;;;;;;;1.97;0.80;;;;;;;-3.77;76.93;100582.91;1842247;77;20925;-49
2022/01/11 06:57:34;;;;;;;2.43;0.80;;;;;;;-3.79;76.91;100593.82;1841910;77;21452;-48
2022/01/11 07:00:00;;;;;;;3.50;1.00;;;;;;;-3.81;76.55;100589.84;1842943;77;21416;-49
2022/01/11 07:02:27;;;;;;;2.77;1.07;;;;;;;-3.79;76.75;100592.93;1839764;77;21378;-48
2022/01/11 07:05:01;;;;;;;2.90;0.80;;;;;;;-3.78;76.62;100595.60;1836944;77;20930;-51
2022/01/11 07:07:27;;;;;;;5.97;2.20;;;;;;;-3.78;76.77;100598.66;1838203;77;20855;-50
2022/01/11 07:09:54;;;;;;;4.37;1.40;;;;;;;-3.77;76.77;100600.44;1843288;77;20954;-48
2022/01/11 07:12:21;;;;;;;2.47;1.00;;;;;;;-3.76;76.72;100601.80;1842432;77;21681;-48
2022/01/11 07:14:47;;;;;;;2.67;0.90;;;;;;;-3.74;76.85;100600.06;1838080;77;21046;-49
2022/01/11 07:17:16;;;;;;;3.80;1.33;;;;;;;-3.69;76.86;100598.44;1832804;77;21065;-48
2022/01/11 07:19:42;;;;;;;2.27;1.10;;;;;;;-3.64;76.66;100599.42;1840682;77;21072;-50
2022/01/11 07:22:12;;;;;;;3.43;1.37;;;;;;;-3.64;76.73;100599.84;1835508;77;21056;-50
2022/01/11 07:24:38;;;;;;;5.27;0.93;;;;;;;-3.68;76.96;100612.06;1835040;77;21139;-48
2022/01/11 07:27:05;;;;;;;6.17;1.10;;;;;;;-3.68;76.96;100594.95;1815570;77;21615;-49
2022/01/11 07:29:32;;;;;;;6.67;1.10;;;;;;;-3.65;77.13;100602.01;1837325;76;21450;-48
2022/01/11 07:31:59;;;;;;;2.47;1.00;;;;;;;-3.66;76.62;100602.89;1834228;76;21065;-49
2022/01/11 07:34:26;;;;;;;2.40;1.10;;;;;;;-3.70;76.59;100603.23;1833176;77;21288;-50
2022/01/11 07:36:53;;;;;;;4.03;0.90;;;;;;;-3.70;76.32;100602.34;1834973;77;20997;-49
2022/01/11 07:39:21;;;;;;;3.20;1.20;;;;;;;-3.69;76.27;100610.70;1834123;77;21118;-48
2022/01/11 07:41:47;;;;;;;1.60;0.80;;;;;;;-3.68;76.22;100607.22;1836665;77;21061;-49
2022/01/11 07:44:19;;;;;;;2.03;0.90;;;;;;;-3.67;76.29;100604.63;1828336;77;21622;-49
2022/01/11 07:46:46;;;;;;;4.10;1.50;;;;;;;-3.62;76.32;100604.72;1803780;77;21029;-51
2022/01/11 07:49:15;;;;;;;2.80;1.00;;;;;;;-3.57;76.25;100605.27;1833248;77;20985;-50
2022/01/11 07:51:41;;;;;;;5.17;1.00;;;;;;;-3.53;76.12;100607.55;1836389;77;22631;-49
2022/01/11 07:54:09;;;;;;;1.57;0.80;;;;;;;-3.53;76.02;100599.66;1838458;77;20842;-49
2022/01/11 07:56:37;;;;;;;6.03;1.10;;;;;;;-3.53;75.98;100608.45;1810444;77;21444;-48
2022/01/11 07:59:04;;;;;;;4.27;0.90;;;;;;;-3.52;76.01;100611.54;1837865;77;20938;-50
2022/01/11 08:01:33;;;;;;;2.93;1.10;;;;;;;-3.48;76.10;100605.89;1834160;77;21029;-51
2022/01/11 08:03:59;;;;;;;5.00;2.17;;;;;;;-3.43;76.06;100617.44;1834461;77;21231;-51
2022/01/11 08:06:28;;;;;;;2.33;1.10;;;;;;;-3.40;75.86;100621.42;1834262;77;21029;-50
2022/01/11 08:08:56;;;;;;;5.00;1.73;;;;;;;-3.42;75.91;100612.63;1833721;77;21389;-49
2022/01/11 08:11:22;;;;;;;3.43;1.53;;;;;;;-3.41;76.03;100611.78;1832413;77;21019;-50
2022/01/11 08:13:49;;;;;;;3.83;1.27;;;;;;;-3.38;76.14;100616.20;1830388;77;21068;-50
2022/01/11 08:16:16;;;;;;;2.73;1.10;;;;;;;-3.36;75.96;100619.33;1834077;77;21124;-51
2022/01/11 08:18:42;;;;;;;2.53;1.20;;;;;;;-3.37;76.05;100612.29;1829763;77;21121;-50
2022/01/11 08:21:09;;;;;;;5.13;1.47;;;;;;;-3.35;75.96;100614.95;1829298;77;21041;-51
2022/01/11 08:23:36;;;;;;;3.40;0.70;;;;;;;-3.37;75.83;100621.50;1810107;77;21026;-49
2022/01/11 08:26:03;;;;;;;2.80;1.33;;;;;;;-3.41;75.12;100615.73;1834493;77;20993;-49
2022/01/11 08:28:30;;;;;;;2.10;0.93;;;;;;;-3.45;75.32;100615.19;1833035;77;21126;-50
2022/01/11 08:30:58;;;;;;;3.33;1.30;;;;;;;-3.44;75.49;100616.97;1834305;77;20989;-50
2022/01/11 08:33:26;;;;;;;0.90;0.53;;;;;;;-3.41;75.35;100617.05;1825952;77;21336;-48
2022/01/11 08:35:53;;;;;;;0.80;0.50;;;;;;;-3.42;74.34;100629.74;1830560;77;22568;-48
2022/01/11 08:38:19;;;;;;;1.00;0.60;;;;;;;-3.48;73.97;100623.00;1830637;77;21638;-50
2022/01/11 08:40:47;;;;;;;1.53;0.60;;;;;;;-3.53;74.19;100620.29;1830873;77;21099;-48
2022/01/11 08:43:14;;;;;;;1.70;0.60;;;;;;;-3.56;74.21;100616.27;1823374;77;21078;-47
2022/01/11 08:45:41;;;;;;;2.43;0.50;;;;;;;-3.55;74.31;100621.98;1827547;77;21073;-50
2022/01/11 08:48:09;;;;;;;0.80;0.50;;;;;;;-3.50;74.25;100619.48;1825558;77;21045;-50
2022/01/11 08:50:37;;;;;;;1.00;0.60;;;;;;;-3.48;73.82;100625.64;1829918;77;20918;-49
2022/01/11 08:53:03;;;;;;;1.03;0.60;;;;;;;-3.52;73.80;100625.12;1830015;77;21082;-50
2022/01/11 08:55:30;;;;;;;1.83;0.70;;;;;;;-3.51;74.01;100619.91;1823286;77;21029;-49
2022/01/11 08:57:56;;;;;;;1.57;0.73;;;;;;;-3.48;74.00;100626.53;1823664;77;21055;-51
2022/01/11 09:00:23;;;;;;;2.57;0.93;;;;;;;-3.49;74.15;100627.37;1834149;77;21034;-49
2022/01/11 09:02:51;;;;;;;3.03;0.77;;;;;;;-3.50;74.53;100624.31;1832042;77;21057;-50
2022/01/11 09:05:19;;;;;;;2.47;1.10;;;;;;;-3.47;74.83;100629.63;1830099;77;21122;-51
2022/01/11 09:07:47;;;;;;;3.10;1.17;;;;;;;-3.45;74.61;100617.82;1830681;77;21071;-49
2022/01/11 09:10:14;;;;;;;4.77;2.00;;;;;;;-3.46;74.65;100623.94;1832050;77;21803;-48
2022/01/11 09:12:41;;;;;;;8.23;2.53;;;;;;;-3.46;74.85;100624.83;1829227;77;21049;-48
2022/01/11 09:15:09;;;;;;;3.30;1.23;;;;;;;-3.48;74.76;100623.89;1826030;77;21008;-49
2022/01/11 09:17:37;;;;;;;2.33;1.27;;;;;;;-3.44;74.84;100615.23;1831680;77;21028;-48
2022/01/11 09:20:06;;;;;;;2.10;0.90;;;;;;;-3.39;74.57;100621.00;1830173;77;20954;-51
2022/01/11 09:22:33;;;;;;;11.40;1.90;;;;;;;-3.38;74.30;100621.04;1812082;77;21001;-51
2022/01/11 09:25:00;;;;;;;7.63;2.50;;;;;;;-3.37;74.16;100622.82;1829047;77;21057;-49
2022/01/11 09:27:29;;;;;;;1.40;0.80;;;;;;;-3.39;74.25;100621.00;1829673;77;20933;-51
2022/01/11 09:29:55;;;;;;;3.00;0.90;;;;;;;-3.41;73.74;100613.09;1832381;77;21077;-48
2022/01/11 09:32:24;;;;;;;2.27;0.90;;;;;;;-3.45;73.83;100620.45;1834248;77;20851;-49
2022/01/11 09:34:51;;;;;;;1.80;0.70;;;;;;;-3.48;73.95;100623.89;1837149;77;21345;-49
2022/01/11 09:37:23;;;;;;;2.13;0.80;;;;;;;-3.46;74.04;100614.72;1834528;77;20930;-50
2022/01/11 09:39:49;;;;;;;1.20;0.70;;;;;;;-3.45;73.89;100616.50;1839218;77;20926;-50
2022/01/11 09:42:18;;;;;;;1.57;0.70;;;;;;;-3.41;73.93;100615.73;1835184;77;21142;-50
2022/01/11 09:44:44;;;;;;;1.20;0.60;;;;;;;-3.35;73.53;100609.27;1829812;77;21497;-49
2022/01/11 09:47:14;;;;;;;3.77;1.27;;;;;;;-3.30;73.45;100611.55;1836787;77;21868;-49
2022/01/11 09:49:42;;;;;;;2.00;0.90;;;;;;;-3.24;73.61;100619.61;1837277;76;21030;-50
2022/01/11 09:52:10;;;;;;;6.43;1.53;;;;;;;-3.13;73.40;100615.42;1834947;76;20945;-49
2022/01/11 09:54:40;;;;;;;2.87;1.47;;;;;;;-3.07;73.35;100613.37;1840201;76;21077;-49
2022/01/11 09:57:07;;;;;;;6.80;1.03;;;;;;;-2.98;73.31;100610.03;1835316;77;20950;-51
2022/01/11 09:59:34;;;;;;;2.27;1.00;;;;;;;-2.91;72.92;100613.23;1836964;76;21311;-49
2022/01/11 10:02:18;;;;;;;2.25;1.20;;;;;;;-2.85;72.61;100618.61;1835786;77;21404;-50
2022/01/11 10:04:46;;;;;;;1.63;0.90;;;;;;;-2.80;72.76;100615.20;1834839;76;20862;-51
2022/01/11 10:07:34;;;;;;;2.60;1.10;;;;;;;-2.72;72.54;100614.91;1750992;78;21047;-49
2022/01/11 10:10:00;;;;;;;2.70;0.87;;;;;;;-2.64;72.26;100609.81;1762376;80;21053;-50
2022/01/11 10:12:34;;;;;;;2.33;0.90;;;;;;;-2.65;71.99;100605.39;1765878;79;21066;-49
2022/01/11 10:14:57;;;;;;;2.10;1.00;;;;;;;-2.65;72.23;100605.39;1760914;80;21460;-50
2022/01/11 10:17:28;;;;;;;1.77;1.10;;;;;;;-2.59;72.26;100596.70;1769347;79;20979;-50
2022/01/11 10:20:15;;;;;;;2.10;1.10;;;;;;;-2.51;72.11;100598.61;1769801;79;21039;-49
2022/01/11 10:23:00;;;;;;;2.30;1.10;;;;;;;-2.43;72.20;100594.78;1737211;80;21117;-51
2022/01/11 10:25:28;;;;;;;1.70;0.90;;;;;;;-2.37;71.91;100597.09;1794644;78;21049;-49
2022/01/11 10:28:04;;;;;;;2.80;0.90;;;;;;;-2.37;71.54;100594.88;1771626;79;20922;-49
2022/01/11 10:30:34;;;;;;;3.40;1.03;;;;;;;-2.41;71.64;100597.91;1776401;79;21032;-50
2022/01/11 10:33:06;;;;;;;2.47;1.00;;;;;;;-2.37;71.68;100605.00;1774864;79;21430;-49
2022/01/11 10:35:42;;;;;;;2.13;0.90;;;;;;;-2.39;71.15;100600.16;1781396;79;20966;-49
2022/01/11 10:38:12;;;;;;;4.33;1.30;;;;;;;-2.44;71.41;100595.21;1781464;79;20965;-47
2022/01/11 10:40:44;;;;;;;2.03;0.87;;;;;;;-2.47;71.46;100596.93;1783880;79;21090;-48
2022/01/11 10:43:15;;;;;;;2.03;0.80;;;;;;;-2.46;71.42;100594.29;1784003;79;21014;-49
2022/01/11 10:45:46;;;;;;;3.53;1.03;;;;;;;-2.48;71.68;100597.36;1781510;79;21978;-47
2022/01/11 10:48:17;;;;;;;2.23;0.80;;;;;;;-2.44;71.45;100599.17;1779521;79;21054;-48
2022/01/11 10:50:49;;;;;;;2.63;0.77;;;;;;;-2.41;71.31;100596.59;1775380;79;21049;-49
2022/01/11 10:53:21;;;;;;;1.63;0.70;;;;;;;-2.42;71.31;100596.14;1778842;79;21056;-49
2022/01/11 10:55:51;;;;;;;1.00;0.60;;;;;;;-2.37;71.37;100597.52;1779349;79;21078;-48
2022/01/11 10:58:17;;;;;;;1.87;0.63;;;;;;;-2.37;71.10;100596.20;1780729;79;21179;-47
2022/01/11 11:00:46;;;;;;;1.50;0.70;;;;;;;-2.37;71.33;100601.47;1782605;79;21574;-51
2022/01/11 11:03:23;;;;;;;1.30;0.60;;;;;;;-2.36;71.33;100593.59;1775889;79;21111;-51
2022/01/11 11:05:59;;;;;;;2.07;0.80;;;;;;;-2.37;70.98;100611.59;1782084;79;21010;-51
2022/01/11 11:08:30;;;;;;;1.90;0.80;;;;;;;-2.44;70.99;100599.17;1776800;79;21103;-50
2022/01/11 11:11:04;;;;;;;1.67;0.80;;;;;;;-2.52;71.14;100595.52;1744267;79;21082;-52
2022/01/11 11:13:38;;;;;;;2.33;0.90;;;;;;;-2.52;71.32;100598.15;1782628;79;20985;-50
2022/01/11 11:16:22;;;;;;;1.40;0.70;;;;;;;-2.56;71.16;100597.66;1769373;79;20950;-51
2022/01/11 11:18:53;;;;;;;1.50;0.70;;;;;;;-2.58;71.15;100605.06;1775442;79;21467;-51
2022/01/11 11:21:32;;;;;;;1.43;0.60;;;;;;;-2.64;70.93;100606.28;1775956;79;21067;-49
2022/01/11 11:24:10;;;;;;;1.20;0.80;;;;;;;-2.68;71.21;100607.96;1780604;79;22405;-50
2022/01/11 11:26:45;;;;;;;1.17;0.60;;;;;;;-2.66;70.97;100597.03;1777590;79;21094;-50
2022/01/11 11:29:11;;;;;;;3.40;0.60;;;;;;;-2.66;70.96;100604.94;1779046;79;21041;-49
2022/01/11 11:31:38;;;;;;;1.50;0.70;;;;;;;-2.66;70.58;100604.94;1760393;80;21486;-49